ORD weather

Chicago O'Hare International Airport
Chicago, Illinois, United States

Public forecast

Using degrees Fahrenheit for public forecast. Weather courtesy of forecast.io.

METAR (pilot weather report)

Retrieved 2019/04/23 08:51 UTC (51 minutes ago):

KORD 230851Z 25014G22KT 8SM BKN011 OVC027 16/13 A2982 RMK AO2 SLP096 T01560133 53003

TAF (pilot weather forecast)

Retrieved 2019/04/23 06:22 UTC (3 hours ago):

TAF KORD 230520Z 2306/2412 22014G24KT P6SM OVC080 FM230800 25012G20KT P6SM OVC010 FM231000 28013G21KT P6SM OVC008 FM231200 01012G20KT P6SM OVC008 FM231500 36010G15KT P6SM OVC015 FM232100 03010KT P6SM FEW025 SCT150 FM240100 04006KT P6SM SKC